Barrowtown, British Columbia

7:34 PM PST on February 25, 2017 (GMT -0800)
| | Change Station

Elev -9999 ft 0.00 °N, 0.00 °E | Updated 0 second ago

Snow
Snow
°F
Feels Like °F
N
Wind Variable Wind from North
Gusts mph

Today
High -- | Low -- °F
--% Chance of Precip.
Yesterday
High -- | Low -- °F
Precip. -- in
Pressure 29.98 in
Visibility 5.0 miles
Clouds Few 1700 ft
Scattered Clouds 2400 ft
Mostly Cloudy 2700 ft
Overcast 3600 ft
Dew Point Not available.
Humidity Not available.
Rainfall --
Snow Depth Not available.
6:57 AM 5:46 PM
Waning Crescent, 0% visible
SPECI CYXX 260322Z 16010KT 5SM -SHRA FEW017 SCT024 BKN027 OVC036 02/01 A2996 RMK CF1CU4SC2SC2 CF TR SLP150
Pressure 29.98 in
Visibility 5.0 miles
Clouds Few 1700 ft
Scattered Clouds 2400 ft
Mostly Cloudy 2700 ft
Overcast 3600 ft
Dew Point Not available.
Humidity Not available.
Rainfall --
Snow Depth Not available.
6:57 AM 5:46 PM
Waning Crescent, 0% visible
SPECI CYXX 260322Z 16010KT 5SM -SHRA FEW017 SCT024 BKN027 OVC036 02/01 A2996 RMK CF1CU4SC2SC2 CF TR SLP150

Get Your Daily Forecast Email!

Thanks for signing up!

Be on the lookout for a verification email in your inbox.

You'll start receiving the daily forecast at 8 AM.

×

10-Day Weather Forecast

Almanac

Astronomy

Feb. 25, 2017 Rise Set
Actual Time
Civil Twilight
Nautical Twilight
Astronomical Twilight
Moon
Length of Visible Light
Length of Day
Tomorrow will be .
, % of the Moon is Illuminated

Today's Extremes

Country Highs Country Lows

Community

WunderPhotos

Upload Photos

1,962,540 photos uploaded!

WunderBlog® & News

Nearby

Air Quality

  Air Quality AQ Index Pollutant
Not available.

Snow Depth

Station Depth Elevation

Earthquake Activity

City Distance Mag. Time & Date
Minimum magnitude displayed is 2.5.

Coastal Water Temperatures

Place Temperature

Stations

Nearby Weather Stations

Station Location Temp. Windchill Dew Point Humidity Wind Precip. Elev Updated Type
                   

Watches & Warnings

There are currently no watches in effect.